createdAt,value
2022-12-11T00:04:03.262Z,15.48
2022-12-11T00:09:04.968Z,17.15
2022-12-11T00:14:06.529Z,22.02
2022-12-11T00:19:08.197Z,20.05
2022-12-11T00:24:09.869Z,21.92
2022-12-11T00:29:14.609Z,21.85
2022-12-11T00:34:16.278Z,23.77
2022-12-11T00:39:17.858Z,25.63
2022-12-11T00:44:19.465Z,23.17
2022-12-11T00:49:21.057Z,23.42
2022-12-11T00:54:22.621Z,22.77
2022-12-11T00:59:24.202Z,24.20
2022-12-11T01:04:26.549Z,23.73
2022-12-11T01:09:46.684Z,24.75
2022-12-11T01:14:48.243Z,24.85
2022-12-11T01:19:49.830Z,25.85
2022-12-11T01:24:51.413Z,25.30
2022-12-11T01:29:53.005Z,25.20
2022-12-11T01:34:54.778Z,24.80
2022-12-11T01:39:56.425Z,26.15
2022-12-11T01:45:27.530Z,26.05
2022-12-11T01:50:31.544Z,26.15
2022-12-11T01:55:33.892Z,27.08
2022-12-11T02:00:35.538Z,29.65
2022-12-11T02:05:37.172Z,27.00
2022-12-11T02:10:44.363Z,27.48
2022-12-11T02:16:03.343Z,26.95
2022-12-11T02:21:22.244Z,26.75
2022-12-11T02:26:42.368Z,26.40
2022-12-11T02:31:53.728Z,27.58
2022-12-11T02:37:01.644Z,25.65
2022-12-11T02:42:04.127Z,28.42
2022-12-11T02:47:08.768Z,28.60
2022-12-11T02:52:14.253Z,28.95
2022-12-11T02:57:35.934Z,26.85
2022-12-11T03:02:39.426Z,27.75
2022-12-11T03:07:43.451Z,29.13
2022-12-11T03:12:53.228Z,29.52
2022-12-11T03:18:13.107Z,29.23
2022-12-11T03:28:25.829Z,24.58
2022-12-11T03:33:36.607Z,27.40
2022-12-11T03:38:51.922Z,24.75
2022-12-11T03:43:57.147Z,25.55
2022-12-11T03:49:03.324Z,27.73
2022-12-11T03:54:05.721Z,29.88
2022-12-11T03:59:09.750Z,27.70
2022-12-11T04:04:11.429Z,26.58
2022-12-11T04:09:13.183Z,26.30
2022-12-11T04:14:33.117Z,25.35
2022-12-11T04:19:53.179Z,26.42
2022-12-11T04:24:54.782Z,27.00
2022-12-11T04:29:56.336Z,24.05
2022-12-11T04:34:57.902Z,25.13
2022-12-11T04:39:59.456Z,24.95
2022-12-11T04:45:01.107Z,25.42
2022-12-11T04:50:03.846Z,26.15
2022-12-11T04:55:07.624Z,25.75
2022-12-11T05:00:11.438Z,24.08
2022-12-11T05:05:13.517Z,26.05
2022-12-11T05:10:15.320Z,23.38
2022-12-11T05:15:17.082Z,24.25
2022-12-11T05:20:18.737Z,24.67
2022-12-11T05:25:20.283Z,23.90
2022-12-11T05:30:21.913Z,24.58
2022-12-11T05:35:23.458Z,23.52
2022-12-11T05:40:25.067Z,24.63
2022-12-11T05:45:26.603Z,24.55
2022-12-11T05:50:28.219Z,25.20
2022-12-11T05:55:29.744Z,23.95
2022-12-11T06:00:35.916Z,23.05
2022-12-11T06:05:39.470Z,23.92
2022-12-11T06:10:48.735Z,23.30
2022-12-11T06:15:50.433Z,24.10
2022-12-11T06:20:51.996Z,23.10
2022-12-11T06:25:53.594Z,24.55
2022-12-11T06:30:59.215Z,24.05
2022-12-11T06:36:05.888Z,24.00
2022-12-11T06:41:08.515Z,23.67
2022-12-11T06:46:13.349Z,25.35
2022-12-11T06:51:17.242Z,22.27
2022-12-11T06:56:19.154Z,24.80
2022-12-11T07:01:25.998Z,23.38
2022-12-11T07:06:28.582Z,26.88
2022-12-11T07:11:30.171Z,24.38
2022-12-11T07:16:31.765Z,24.98
2022-12-11T07:21:33.486Z,25.40
2022-12-11T07:26:37.584Z,25.23
2022-12-11T07:31:39.215Z,24.52
2022-12-11T07:36:41.207Z,24.55
2022-12-11T07:41:43.170Z,23.70
2022-12-11T07:46:47.481Z,24.95
2022-12-11T07:51:50.111Z,21.60
2022-12-11T07:56:53.921Z,22.30
2022-12-11T08:01:55.793Z,21.70
2022-12-11T08:06:57.707Z,23.25
2022-12-11T08:11:59.264Z,21.33
2022-12-11T08:17:02.459Z,22.30
2022-12-11T08:22:04.233Z,23.85
2022-12-11T08:27:05.946Z,21.10
2022-12-11T08:32:12.061Z,20.98
2022-12-11T08:37:14.068Z,20.73
2022-12-11T08:42:15.641Z,20.50
2022-12-11T08:47:17.687Z,20.98
2022-12-11T08:52:21.627Z,19.25
2022-12-11T08:57:25.601Z,21.02
2022-12-11T09:02:27.222Z,20.48
2022-12-11T09:07:28.788Z,21.10
2022-12-11T09:12:31.279Z,20.80
2022-12-11T09:17:35.433Z,20.60
2022-12-11T09:22:37.055Z,21.15
2022-12-11T09:27:38.665Z,20.42
2022-12-11T09:32:40.207Z,22.23
2022-12-11T09:37:41.798Z,23.35
2022-12-11T09:43:28.750Z,22.90
2022-12-11T09:48:34.112Z,21.20
2022-12-11T09:53:36.895Z,21.35
2022-12-11T09:58:38.457Z,22.10
2022-12-11T10:04:07.929Z,23.05
2022-12-11T10:09:34.084Z,23.10
2022-12-11T10:14:54.018Z,24.30
2022-12-11T10:20:00.446Z,23.80
2022-12-11T10:25:13.883Z,23.25
2022-12-11T10:30:30.389Z,22.30
2022-12-11T10:35:53.741Z,21.90
2022-12-11T10:40:58.672Z,22.63
2022-12-11T10:46:00.489Z,20.98
2022-12-11T10:51:05.489Z,20.52
2022-12-11T10:56:10.029Z,21.98
2022-12-11T11:01:19.115Z,19.77
2022-12-11T11:06:22.741Z,20.27
2022-12-11T11:11:29.903Z,20.25
2022-12-11T11:16:32.062Z,19.83
2022-12-11T11:21:35.861Z,20.95
2022-12-11T11:27:11.154Z,20.25
2022-12-11T11:32:14.480Z,20.15
2022-12-11T11:37:31.845Z,20.30
2022-12-11T11:42:45.772Z,19.70
2022-12-11T11:47:59.902Z,19.98
2022-12-11T11:53:14.366Z,18.35
2022-12-11T11:58:23.092Z,18.45
2022-12-11T12:03:25.644Z,18.60
2022-12-11T12:08:41.681Z,18.15
2022-12-11T12:14:22.789Z,18.98
2022-12-11T12:20:05.353Z,18.52
2022-12-11T12:25:25.774Z,17.45
2022-12-11T12:30:34.574Z,16.95
2022-12-11T12:35:50.427Z,17.37
2022-12-11T12:41:04.125Z,16.73
2022-12-11T12:46:21.529Z,16.73
2022-12-11T12:51:23.841Z,18.05
2022-12-11T12:56:27.911Z,17.33
2022-12-11T13:01:31.484Z,16.00
2022-12-11T13:06:39.186Z,16.20
2022-12-11T13:11:41.115Z,16.42
2022-12-11T13:16:47.838Z,16.33
2022-12-11T13:21:58.054Z,17.00
2022-12-11T13:27:23.908Z,16.60
2022-12-11T13:32:31.010Z,17.27
2022-12-11T13:37:36.708Z,17.48
2022-12-11T13:42:50.368Z,18.05
2022-12-11T13:47:52.052Z,19.73
2022-12-11T13:52:55.668Z,19.35
2022-12-11T13:57:57.935Z,19.45
2022-12-11T14:03:04.731Z,18.55
2022-12-11T14:08:11.736Z,19.33
2022-12-11T14:13:20.561Z,19.65
2022-12-11T14:18:26.623Z,21.07
2022-12-11T14:23:33.962Z,19.92
2022-12-11T14:28:41.531Z,20.38
2022-12-11T14:33:48.622Z,20.80
2022-12-11T14:38:57.184Z,23.40
2022-12-11T14:44:01.886Z,23.20
2022-12-11T14:49:08.848Z,22.58
2022-12-11T14:54:38.602Z,22.20
2022-12-11T14:59:45.822Z,21.85
2022-12-11T15:05:00.863Z,21.58
2022-12-11T15:10:04.123Z,22.75
2022-12-11T15:15:07.454Z,23.33
2022-12-11T15:20:19.958Z,23.27
2022-12-11T15:25:23.862Z,23.15
2022-12-11T15:30:30.132Z,22.25
2022-12-11T15:35:31.836Z,21.58
2022-12-11T15:40:33.434Z,22.38
2022-12-11T15:45:35.742Z,21.88
2022-12-11T15:50:37.299Z,23.70
2022-12-11T15:55:39.296Z,21.67
2022-12-11T16:00:41.038Z,20.85
2022-12-11T16:05:42.877Z,20.85
2022-12-11T16:10:45.637Z,23.63
2022-12-11T16:15:48.884Z,23.15
2022-12-11T16:20:53.400Z,22.33
2022-12-11T16:25:54.966Z,22.15
2022-12-11T16:30:56.588Z,23.73
2022-12-11T16:35:59.223Z,22.77
2022-12-11T16:41:01.810Z,24.67
2022-12-11T16:46:03.795Z,24.92
2022-12-11T16:51:05.679Z,24.27
2022-12-11T16:56:08.530Z,23.25
2022-12-11T17:01:14.738Z,23.48
2022-12-11T17:06:17.668Z,23.15
2022-12-11T17:11:22.335Z,22.65
2022-12-11T17:16:26.207Z,24.65
2022-12-11T17:21:27.890Z,24.38
2022-12-11T17:26:29.504Z,25.17
2022-12-11T17:31:31.181Z,24.75
2022-12-11T17:36:33.211Z,25.30
2022-12-11T17:41:34.766Z,26.08
2022-12-11T17:46:36.365Z,24.85
2022-12-11T17:51:38.063Z,27.08
2022-12-11T17:56:42.010Z,25.33
2022-12-11T18:01:43.678Z,25.67
2022-12-11T18:06:45.303Z,26.10
2022-12-11T18:11:46.974Z,23.60
2022-12-11T18:16:48.823Z,27.13
2022-12-11T18:21:50.481Z,26.73
2022-12-11T18:26:52.038Z,27.90
2022-12-11T18:31:54.015Z,28.70
2022-12-11T18:36:55.660Z,26.42
2022-12-11T18:42:24.361Z,34.00
2022-12-11T18:47:18.804Z,32.60
2022-12-11T18:52:20.494Z,31.05
2022-12-11T18:57:22.262Z,28.55
2022-12-11T19:02:23.895Z,28.83
2022-12-11T19:07:25.551Z,30.27
2022-12-11T19:12:27.149Z,30.13
2022-12-11T19:17:28.713Z,32.63
2022-12-11T19:22:30.266Z,31.05
2022-12-11T19:27:32.061Z,29.58
2022-12-11T19:32:36.423Z,29.10
2022-12-11T19:37:38.235Z,29.27
2022-12-11T19:42:40.038Z,30.08
2022-12-11T19:47:41.629Z,30.70
2022-12-11T19:52:46.328Z,30.45
2022-12-11T19:57:48.209Z,30.85
2022-12-11T20:02:49.773Z,29.70
2022-12-11T20:07:52.149Z,29.85
2022-12-11T20:12:56.573Z,29.05
2022-12-11T20:18:00.249Z,26.80
2022-12-11T20:23:03.380Z,25.48
2022-12-11T20:28:05.176Z,27.05
2022-12-11T20:33:06.763Z,25.30
2022-12-11T20:38:09.131Z,25.60
2022-12-11T20:43:10.803Z,26.17
2022-12-11T20:48:12.394Z,28.48
2022-12-11T20:53:13.947Z,26.70
2022-12-11T20:58:15.564Z,28.48
2022-12-11T21:03:17.379Z,27.30
2022-12-11T21:08:18.978Z,30.20
2022-12-11T21:13:20.599Z,29.75
2022-12-11T21:18:22.160Z,26.83
2022-12-11T21:23:23.696Z,28.95
2022-12-11T21:28:29.286Z,27.13
2022-12-11T21:33:34.827Z,25.17
2022-12-11T21:38:36.573Z,27.63
2022-12-11T21:43:52.562Z,27.92
2022-12-11T21:48:59.913Z,28.13
2022-12-11T21:54:01.531Z,27.83
2022-12-11T21:59:03.235Z,26.35
2022-12-11T22:04:06.803Z,27.23
2022-12-11T22:09:08.630Z,26.88
2022-12-11T22:14:13.254Z,27.25
2022-12-11T22:19:14.864Z,26.52
2022-12-11T22:24:16.426Z,26.73
2022-12-11T22:29:18.024Z,23.13
2022-12-11T22:34:19.662Z,23.45
2022-12-11T22:39:21.222Z,21.88
2022-12-11T22:44:22.794Z,19.52
2022-12-11T22:49:24.326Z,21.48
2022-12-11T22:54:25.977Z,22.58
2022-12-11T22:59:27.629Z,19.25
2022-12-11T23:04:29.187Z,22.00
2022-12-11T23:09:30.778Z,19.75
2022-12-11T23:14:32.351Z,21.10
2022-12-11T23:19:34.666Z,20.75
2022-12-11T23:24:36.221Z,18.42
2022-12-11T23:29:37.847Z,18.02
2022-12-11T23:34:39.399Z,21.00
2022-12-11T23:39:40.951Z,21.77
2022-12-11T23:44:42.490Z,22.65
2022-12-11T23:49:44.053Z,22.50
2022-12-11T23:54:45.589Z,23.15
2022-12-11T23:59:47.266Z,22.67
